ADDS METAR Data INFO
IDs: Format: Raw Decoded Include TAF

Data at: 1012 UTC 22 May 2018

KFTY 220953Z 09003KT 10SM OVC010 21/20 A3009 RMK AO2 SLP181 T02110200
KFTY 220926Z 00000KT 10SM BKN011 BKN018 BKN031 21/20 A3009 RMK AO2 T02110200
KFTY 220906Z 00000KT 10SM SCT013 BKN030 21/20 A3008 RMK AO2 T02110200
KFTY 220853Z 15003KT 10SM BKN013 OVC028 21/20 A3008 RMK AO2 SLP177 T02110200 55005
KFTY 220830Z VRB04KT 10SM BKN013 OVC023 21/20 A3008 RMK AO2 T02110200
KFTY 220753Z 13005KT 10SM BKN015 BKN065 OVC085 21/19 A3008 RMK AO2 SLP175 T02110194
KFTY 220653Z 13004KT 10SM SCT022 BKN075 OVC090 22/19 A3009 RMK AO2 SLP178 T02170194
KFTY 220553Z 12004KT 10SM SCT055 OVC065 22/19 A3010 RMK AO2 SLP182 60000 T02170194 10256 20217 56005
KFTY 220453Z VRB03KT 10SM CLR 22/19 A3010 RMK AO2 SLP184 T02170189 402830172
KFTY 220353Z 10004KT 10SM FEW080 22/18 A3010 RMK AO2 SLP185 T02220183
KFTY 220253Z VRB05KT 10SM BKN100 23/18 A3011 RMK AO2 SLP189 60000 T02280183 51008
KFTY 220153Z 00000KT 10SM BKN095 23/18 A3011 RMK AO2 SLP187 T02330183
KFTY 220053Z 16006KT 10SM FEW060 OVC085 24/18 A3011 RMK AO2 RAB40E50 SLP186 P0000 T02390178
KFTY 212353Z 15015G25KT 10SM FEW039 SCT055 BKN080 26/17 A3009 RMK AO2 SLP180 T02610172 10283 20261 53000
KFTY 212253Z VRB05KT 10SM FEW044 FEW050 SCT100 28/18 A3007 RMK AO2 SLP174 T02780183
KFTY 212153Z 13010KT 10SM FEW110 28/18 A3007 RMK AO2 SLP175 T02780178
KFTY 212053Z 12008KT 10SM SCT110 28/18 A3009 RMK AO2 SLP180 T02780183 56019
KFTY 211953Z 10007KT 10SM BKN110 28/18 A3010 RMK AO2 SLP183 T02780183
KFTY 211853Z 11007KT 10SM FEW039 FEW049 27/19 A3012 RMK AO2 SLP191 T02720189
KFTY 211753Z VRB05KT 10SM FEW055 SCT070 27/19 A3014 RMK AO2 SLP199 T02670189 10272 20200 58011
KFTY 211653Z 12006KT 10SM BKN042 BKN100 26/19 A3017 RMK AO2 SLP206 T02610189
KFTY 211553Z 00000KT 10SM BKN034 25/18 A3017 RMK AO2 SLP209 T02500183
KFTY 211453Z 10005KT 10SM OVC033 24/16 A3018 RMK AO2 SLP210 T02440161 51005
KFTY 211353Z 01005KT 10SM CLR 24/18 A3018 RMK AO2 SLP211 T02390183
KFTY 211253Z 04005KT 10SM CLR 22/19 A3018 RMK AO2 SLP211 T02220189
KFTY 211153Z 00000KT 10SM CLR 20/18 A3016 RMK AO2 SLP206 70183 T02000183 10206 20172 51008
KFTY 211053Z 00000KT 10SM CLR 18/18 A3015 RMK AO2 SLP203 T01830183
KFTY 210953Z 00000KT 10SM CLR 18/18 A3015 RMK AO2 SLP202 T01830183
KFTY 210853Z 34003KT 10SM CLR 18/18 A3013 RMK AO2 SLP196 T01780178 55006
KFTY 210753Z 15003KT 10SM CLR 19/18 A3012 RMK AO2 SLP191 T01890183
KFTY 210653Z 13003KT 10SM CLR 20/18 A3013 RMK AO2 SLP194 T02000178
KFTY 210553Z 16003KT 10SM CLR 21/18 A3015 RMK AO2 SLP201 60000 T02060183 10217 20200 58007
KFTY 210453Z 00000KT 10SM CLR 21/21 A3018 RMK AO2 SLP209 T02060206 403110189
KFTY 210353Z 00000KT 9SM CLR 21/21 A3019 RMK AO2 SLP214 T02060206
KFTY 210253Z 15004KT 10SM CLR 22/21 A3017 RMK AO2 SLP209 60000 T02170206 53014
KFTY 210153Z 09003KT 10SM CLR 21/21 A3015 RMK AO2 RAE0059 SLP200 P0000 T02060206
KFTY 210053Z 00000KT 10SM -RA FEW110 21/21 A3012 RMK AO2 RAB06 SLP191 P0000 T02110206
KFTY 202353Z 16005KT 10SM FEW100 21/20 A3013 RMK AO2 LTG DSNT S AND SW TSE2254 SLP195 60183 T02110200 10311 20206 51020
KFTY 202331Z 12004KT 10SM SCT090 BKN100 22/20 A3012 RMK AO2 LTG DSNT S-W TSE2254 T02170200
KFTY 202300Z 15007KT 10SM VCTS CLR 22/21 A3011 RMK AO2 LTG DSNT SE-W TSE2254 T02220206
KFTY 202253Z 10006KT 4SM TS BR FEW055 FEW100 23/21 A3011 RMK AO2 LTG DSNT SE-W RAE28 TSE15B39 SLP188 P0001 T02280211
KFTY 202245Z 06006KT 4SM TS BR FEW055 SCT110 22/21 A3010 RMK AO2 LTG DSNT SE-W RAE28 TSE15B39 P0001 T02220211
KFTY 202221Z 01004KT 4SM VCTS -RA BR FEW040 BKN090 OVC110 22/21 A3010 RMK AO2 LTG DSNT ALQDS TSE15 P0001 T02170211